KEED/EED METAR and TAF weather

Enter ICAO airport designator
Station Type Date Time Source
KEED METAR 2023/02/05 23:56 UTC NOAA

KEED 052356Z AUTO 29012KT 10SM CLR 21/00 A2999 RMK AO2 SLP140 T02110000 10228 20139 56011


Station Type Date Time Source
KEED Decoded METAR 2023/02/05 23:56 UTC NOAA

NEEDLES AIRPORT, CA, United States (KEED) 34-46N 114-37W
Feb 05, 2023 - 06:56 PM EST / 2023.02.05 2356 UTC
Wind: from the WNW (290 degrees) at 14 MPH (12 KT):0
Visibility: 10 mile(s):0
Sky conditions: clear
Temperature: 70.0 F (21.1 C)
Dew Point: 32.0 F (0.0 C)
Relative Humidity: 24%
Pressure (altimeter): 29.99 in. Hg (1015 hPa)
Pressure tendency: 0.03 inches (1.1 hPa) lower than three hours ago
ob: KEED 052356Z AUTO 29012KT 10SM CLR 21/00 A2999 RMK AO2 SLP140 T02110000 10228 20139 56011
cycle: 0

Station Type Date Time Source
KEED TAF 2023/02/05 18:24 UTC NOAA

TAF KEED 051723Z 0518/0618 VRB05KT P6SM SKC
FM052200 23010G20KT P6SM FEW250
FM060300 30011KT P6SM FEW250
FM060900 33011KT P6SM SCT080
FM061700 33018G26KT P6SM SCT120

Example: see airport list